Aviation Digital Data Service (ADDS)

Output produced by TAFs form (0807 UTC 27 August 2016)
found at http://aviationweather.gov/adds/tafs/
 
KRIL 270543Z 2706/2806 28006KT P6SM VCSH OVC070 
     FM271000 00000KT P6SM SCT070 
     FM271900 28006KT P6SM VCSH SCT070 BKN110 
     FM272100 27010G18KT P6SM VCTS SCT070CB BKN110 
     FM280200 28006KT P6SM BKN110